Time;durP1;ratioP1;P1;durP2;ratioP2;P2;SDS_P1;SDS_P2;PMS_P1;PMS_P2;Temp;Humidity;BMP_temperature;BMP_pressure;BME280_temperature;BME280_humidity;BME280_pressure;Samples;Min_cycle;Max_cycle;Signal;HPM_P1;HPM_P2
2023/01/17 00:01:54;;;;;;;3.03;0.30;;;4.40;99.90;;;;;;5056878;28;20472;-85
2023/01/17 00:09:57;;;;;;;1.02;0.10;;;3.50;99.90;;;;;;5108238;28;20490;-85
2023/01/17 00:12:29;;;;;;;3.45;0.28;;;3.50;99.90;;;;;;5089799;28;20043;-84
2023/01/17 00:14:57;;;;;;;1.75;0.15;;;3.50;99.90;;;;;;5106779;28;20050;-84
2023/01/17 00:17:24;;;;;;;4.43;0.60;;;4.20;99.90;;;;;;5090646;28;20044;-85
2023/01/17 01:35:27;;;;;;;4.53;0.60;;;4.50;99.90;;;;;;5092232;28;20204;-85
2023/01/17 01:37:53;;;;;;;6.25;0.57;;;3.90;99.90;;;;;;5071074;28;20075;-86
2023/01/17 01:40:19;;;;;;;4.20;0.52;;;4.60;99.90;;;;;;5071844;28;20134;-85
2023/01/17 01:42:53;;;;;;;2.25;0.40;;;5.20;99.90;;;;;;5105235;28;20069;-86
2023/01/17 01:45:28;;;;;;;8.88;0.90;;;3.80;99.90;;;;;;5105247;28;20059;-86
2023/01/17 01:48:32;;;;;;;5.22;0.30;;;3.70;99.90;;;;;;5106480;28;20050;-85
2023/01/17 01:51:00;;;;;;;3.80;0.55;;;3.70;99.90;;;;;;5075005;28;20058;-85
2023/01/17 01:53:27;;;;;;;4.95;1.60;;;3.70;99.90;;;;;;5071920;28;20054;-86
2023/01/17 01:55:54;;;;;;;6.88;0.73;;;4.40;99.90;;;;;;5071737;28;20047;-85
2023/01/17 01:58:24;;;;;;;5.25;0.93;;;4.50;99.90;;;;;;5071356;28;20052;-86
2023/01/17 02:00:50;;;;;;;2.67;0.40;;;4.00;99.90;;;;;;5089408;28;20054;-85
2023/01/17 02:03:24;;;;;;;8.43;0.80;;;3.70;99.90;;;;;;5054290;28;20044;-85
2023/01/17 02:05:51;;;;;;;7.07;0.68;;;3.70;99.90;;;;;;5088594;28;20108;-85
2023/01/17 02:08:20;;;;;;;4.80;0.63;;;4.70;99.90;;;;;;5087815;28;20044;-85
2023/01/17 02:10:46;;;;;;;6.43;0.60;;;3.70;99.90;;;;;;5104992;28;20137;-85
2023/01/17 02:13:14;;;;;;;9.30;0.88;;;3.70;99.90;;;;;;5072263;28;20436;-85
2023/01/17 02:15:52;;;;;;;4.70;0.65;;;3.70;99.90;;;;;;5086968;28;20047;-84
2023/01/17 02:18:40;;;;;;;7.80;1.08;;;3.70;99.90;;;;;;5089153;28;20431;-84
2023/01/17 02:21:12;;;;;;;8.85;0.85;;;3.70;99.90;;;;;;5088110;28;20036;-84
2023/01/17 02:24:16;;;;;;;5.93;0.88;;;3.70;99.90;;;;;;5105006;28;20398;-84
2023/01/17 02:27:06;;;;;;;8.02;1.55;;;3.70;99.90;;;;;;5106621;28;20086;-84
2023/01/17 02:29:43;;;;;;;5.10;0.93;;;3.80;99.90;;;;;;5088608;28;20425;-85
2023/01/17 02:32:12;;;;;;;3.17;0.60;;;3.80;99.90;;;;;;5088062;28;20394;-84
2023/01/17 02:34:44;;;;;;;9.82;1.17;;;3.80;99.90;;;;;;5105125;28;20043;-85
2023/01/17 02:37:09;;;;;;;5.93;0.80;;;3.80;99.90;;;;;;5103908;28;20489;-84
2023/01/17 02:40:01;;;;;;;5.05;0.75;;;3.80;99.90;;;;;;5088813;28;20043;-84
2023/01/17 02:42:36;;;;;;;6.30;0.50;;;3.90;99.90;;;;;;5104792;28;20485;-85
2023/01/17 02:45:03;;;;;;;6.03;0.60;;;3.90;99.90;;;;;;5104557;28;20032;-85
2023/01/17 02:47:30;;;;;;;6.28;0.63;;;3.90;99.90;;;;;;5105064;28;20071;-85
2023/01/17 02:50:13;;;;;;;5.60;0.50;;;3.80;99.90;;;;;;5086877;28;20046;-85
2023/01/17 02:53:07;;;;;;;8.20;0.70;;;3.80;99.90;;;;;;5089193;28;20048;-85
2023/01/17 02:55:56;;;;;;;4.28;0.50;;;3.80;99.90;;;;;;5087441;28;20106;-85
2023/01/17 02:58:49;;;;;;;4.80;0.60;;;3.80;99.90;;;;;;5087185;28;20083;-86
2023/01/17 03:01:43;;;;;;;3.20;0.32;;;3.80;99.90;;;;;;5089653;28;20503;-86
2023/01/17 03:04:20;;;;;;;4.03;0.70;;;3.80;99.90;;;;;;5092484;28;20108;-86
2023/01/17 03:06:59;;;;;;;10.48;0.68;;;4.50;99.90;;;;;;5091281;28;20051;-85
2023/01/17 03:09:27;;;;;;;3.15;0.50;;;5.00;99.90;;;;;;5092069;28;20586;-85
2023/01/17 03:11:54;;;;;;;11.45;0.52;;;3.90;99.90;;;;;;5090490;28;20075;-85
2023/01/17 03:14:20;;;;;;;7.05;0.73;;;4.30;99.90;;;;;;5091821;28;20052;-86
2023/01/17 03:16:46;;;;;;;8.50;1.38;;;5.10;99.90;;;;;;5074301;28;20059;-86
2023/01/17 03:19:13;;;;;;;3.78;0.60;;;3.80;99.90;;;;;;5074780;28;20054;-85
2023/01/17 03:21:39;;;;;;;3.38;0.65;;;4.40;99.90;;;;;;5058776;28;20470;-86
2023/01/17 03:24:05;;;;;;;5.47;0.45;;;3.70;99.90;;;;;;5073949;28;20069;-86
2023/01/17 03:26:31;;;;;;;4.40;0.50;;;3.70;99.90;;;;;;5058446;28;20439;-86
2023/01/17 03:28:57;;;;;;;8.10;1.00;;;3.70;99.90;;;;;;5057128;28;20036;-86
2023/01/17 03:31:22;;;;;;;6.20;0.80;;;3.90;99.90;;;;;;5075541;28;20512;-86
2023/01/17 03:33:48;;;;;;;1.67;0.50;;;3.60;99.90;;;;;;5090332;28;20036;-86
2023/01/17 03:36:14;;;;;;;6.15;0.60;;;4.60;99.90;;;;;;5091648;28;20136;-86
2023/01/17 03:38:40;;;;;;;3.03;0.82;;;4.80;99.90;;;;;;5108042;28;20097;-86
2023/01/17 03:41:06;;;;;;;9.55;0.75;;;3.60;99.90;;;;;;5074747;28;20067;-86
2023/01/17 03:43:32;;;;;;;2.78;0.52;;;4.70;99.90;;;;;;5110970;28;20549;-85
2023/01/17 03:46:03;;;;;;;7.95;0.60;;;4.90;99.90;;;;;;5109702;28;20129;-86
2023/01/17 03:48:29;;;;;;;7.47;1.25;;;4.30;99.90;;;;;;5110141;28;20134;-86
2023/01/17 03:50:54;;;;;;;5.13;0.68;;;4.20;99.90;;;;;;5073347;28;20136;-86
2023/01/17 03:53:20;;;;;;;4.68;0.77;;;3.60;99.90;;;;;;5091397;28;20046;-87
2023/01/17 03:55:46;;;;;;;5.43;0.85;;;4.80;99.90;;;;;;5057328;28;20490;-86
2023/01/17 03:58:12;;;;;;;8.90;0.68;;;3.50;99.90;;;;;;5090074;28;20059;-87
2023/01/17 04:00:38;;;;;;;11.95;0.90;;;4.50;99.90;;;;;;5093002;27;20035;-87
2023/01/17 04:03:04;;;;;;;10.48;0.70;;;4.60;99.90;;;;;;5076132;27;20039;-86
2023/01/17 04:05:30;;;;;;;6.35;0.60;;;3.30;99.90;;;;;;5112269;27;20032;-87
2023/01/17 04:07:55;;;;;;;5.40;0.80;;;3.30;99.90;;;;;;5092914;27;20070;-87
2023/01/17 04:10:21;;;;;;;6.32;0.68;;;3.30;99.90;;;;;;5094455;27;20397;-87
2023/01/17 04:12:47;;;;;;;4.60;0.50;;;3.30;99.90;;;;;;5075562;27;20050;-87
2023/01/17 04:15:13;;;;;;;7.90;0.80;;;3.60;99.90;;;;;;5076379;27;20092;-86
2023/01/17 04:17:38;;;;;;;8.50;0.70;;;3.20;99.90;;;;;;5110025;27;20081;-87
2023/01/17 04:20:05;;;;;;;5.45;1.05;;;4.40;99.90;;;;;;5076062;27;20043;-87
2023/01/17 04:22:31;;;;;;;5.78;0.60;;;3.10;99.90;;;;;;5061140;27;20490;-86
2023/01/17 04:24:57;;;;;;;7.63;0.50;;;4.20;99.90;;;;;;5092352;27;20078;-86
2023/01/17 04:27:23;;;;;;;5.80;0.40;;;3.10;99.90;;;;;;5094393;27;20050;-86
2023/01/17 04:29:49;;;;;;;6.97;1.00;;;4.40;99.90;;;;;;5109943;27;20039;-86
2023/01/17 04:32:14;;;;;;;5.75;0.80;;;3.00;99.90;;;;;;5076186;27;20100;-85
2023/01/17 04:34:40;;;;;;;4.80;0.55;;;3.00;99.90;;;;;;5110459;27;20039;-86
2023/01/17 04:37:06;;;;;;;5.15;0.20;;;3.20;99.90;;;;;;5059286;27;20054;-85
2023/01/17 04:39:32;;;;;;;8.43;0.82;;;4.30;99.90;;;;;;5093911;27;20041;-85
2023/01/17 04:41:57;;;;;;;2.78;0.50;;;3.90;99.90;;;;;;5109092;27;20035;-85
2023/01/17 04:44:23;;;;;;;4.50;0.63;;;2.90;99.90;;;;;;5094286;27;20047;-85
2023/01/17 04:46:49;;;;;;;5.15;0.60;;;2.80;99.90;;;;;;5075942;27;20547;-86
2023/01/17 04:49:15;;;;;;;6.55;0.90;;;4.00;99.90;;;;;;5110628;27;20405;-86
2023/01/17 04:51:40;;;;;;;5.68;0.75;;;2.80;99.90;;;;;;5077757;27;20051;-86
2023/01/17 04:54:06;;;;;;;5.63;0.47;;;3.90;99.90;;;;;;5095056;27;20563;-86
2023/01/17 04:56:34;;;;;;;7.32;0.90;;;2.80;99.90;;;;;;5095775;27;20055;-86
2023/01/17 04:59:00;;;;;;;11.18;1.05;;;2.80;99.90;;;;;;5077320;27;20043;-86
2023/01/17 05:01:26;;;;;;;6.00;0.90;;;1.80;99.90;;;;;;5091849;28;20398;-85
2023/01/17 05:03:52;;;;;;;5.60;0.70;;;2.70;99.90;;;;;;5089334;28;20517;-86
2023/01/17 05:06:18;;;;;;;9.10;0.98;;;2.70;99.90;;;;;;5090169;28;20248;-85
2023/01/17 05:08:43;;;;;;;10.32;0.60;;;2.70;99.90;;;;;;5089051;28;20395;-85
2023/01/17 05:11:09;;;;;;;7.50;0.73;;;2.70;99.90;;;;;;5105485;28;20045;-85
2023/01/17 05:13:35;;;;;;;6.88;0.70;;;3.60;99.90;;;;;;5089595;28;20150;-86
2023/01/17 05:16:01;;;;;;;7.05;0.70;;;3.40;99.90;;;;;;5088337;28;20113;-84
2023/01/17 05:18:26;;;;;;;7.80;0.95;;;2.50;99.90;;;;;;5056875;28;20047;-86
2023/01/17 05:20:52;;;;;;;11.80;0.77;;;2.60;99.90;;;;;;5071126;28;20433;-87
2023/01/17 05:23:18;;;;;;;6.40;1.33;;;4.00;99.90;;;;;;5106628;28;20040;-85
2023/01/17 05:25:44;;;;;;;7.22;1.15;;;2.60;99.90;;;;;;5088471;28;20502;-86
2023/01/17 05:28:12;;;;;;;5.40;1.38;;;4.00;99.90;;;;;;5088715;28;20048;-86
2023/01/17 05:30:37;;;;;;;8.80;0.60;;;2.60;99.90;;;;;;5089277;28;20114;-86
2023/01/17 05:33:03;;;;;;;8.60;0.70;;;2.60;99.90;;;;;;5070794;28;20050;-86
2023/01/17 05:35:31;;;;;;;9.23;2.00;;;3.60;99.90;;;;;;5072427;28;20039;-86
2023/01/17 05:37:57;;;;;;;2.35;0.50;;;2.50;99.90;;;;;;5070842;28;20043;-87
2023/01/17 05:40:28;;;;;;;6.25;1.48;;;3.60;99.90;;;;;;5073226;28;20073;-86
2023/01/17 05:42:56;;;;;;;7.13;0.90;;;2.40;99.90;;;;;;5088911;28;20487;-86
2023/01/17 05:45:23;;;;;;;8.75;0.80;;;2.30;99.90;;;;;;5088107;28;20122;-88
2023/01/17 05:47:51;;;;;;;7.20;0.50;;;2.30;99.90;;;;;;5089283;28;20419;-88
2023/01/17 05:50:22;;;;;;;2.88;0.50;;;2.20;99.90;;;;;;5070962;28;20035;-87
2023/01/17 05:52:50;;;;;;;4.35;0.40;;;2.10;99.90;;;;;;5106234;28;20126;-88
2023/01/17 05:55:16;;;;;;;6.30;0.82;;;2.10;99.90;;;;;;5105175;28;20050;-89
2023/01/17 05:57:42;;;;;;;6.07;0.60;;;3.10;99.90;;;;;;5089141;28;20047;-87
2023/01/17 06:00:08;;;;;;;8.02;0.50;;;2.00;99.90;;;;;;5071624;28;20410;-85
2023/01/17 06:02:34;;;;;;;3.88;0.40;;;2.30;99.90;;;;;;5087782;28;20090;-86
2023/01/17 06:05:00;;;;;;;2.55;0.95;;;2.00;99.90;;;;;;5071485;28;20051;-86
2023/01/17 06:07:25;;;;;;;4.13;0.50;;;2.50;99.90;;;;;;5071681;28;20070;-89
2023/01/17 06:09:51;;;;;;;3.83;0.63;;;1.90;99.90;;;;;;5072474;28;20079;-86
2023/01/17 06:12:17;;;;;;;3.80;0.73;;;2.30;99.90;;;;;;5087618;28;20089;-88
2023/01/17 06:14:43;;;;;;;6.35;0.82;;;3.20;99.90;;;;;;5057926;28;20142;-87
2023/01/17 06:17:08;;;;;;;8.23;0.93;;;1.80;99.90;;;;;;5058002;28;20534;-88
2023/01/17 06:19:34;;;;;;;2.65;0.35;;;1.80;99.90;;;;;;5071576;28;20335;-91
2023/01/17 06:22:00;;;;;;;3.95;0.75;;;2.90;99.90;;;;;;5071474;28;20147;-88
2023/01/17 06:24:26;;;;;;;3.15;0.50;;;1.80;99.90;;;;;;5053822;28;20067;-87
2023/01/17 06:26:54;;;;;;;2.45;0.60;;;1.80;99.90;;;;;;5055403;28;20044;-87
2023/01/17 06:29:20;;;;;;;7.10;0.75;;;1.80;99.90;;;;;;5089085;28;20083;-91
2023/01/17 06:31:46;;;;;;;3.75;0.50;;;3.20;99.90;;;;;;5057318;28;20063;-92
2023/01/17 06:34:15;;;;;;;8.02;0.90;;;1.70;99.90;;;;;;5054304;28;20047;-88
2023/01/17 06:36:41;;;;;;;4.47;0.40;;;2.90;99.90;;;;;;5090147;28;20096;-86
2023/01/17 06:39:08;;;;;;;8.43;0.52;;;1.80;99.90;;;;;;5108953;28;20047;-87
2023/01/17 06:41:33;;;;;;;12.52;0.55;;;1.70;99.90;;;;;;5091879;28;20044;-87
2023/01/17 06:43:59;;;;;;;6.38;0.63;;;3.00;99.90;;;;;;5075136;28;20047;-86
2023/01/17 06:46:25;;;;;;;3.47;0.30;;;2.20;99.90;;;;;;5073816;28;20126;-85
2023/01/17 06:48:50;;;;;;;5.50;0.32;;;1.80;99.90;;;;;;5075946;28;20410;-86
2023/01/17 06:51:16;;;;;;;7.68;0.70;;;1.70;99.90;;;;;;5108072;28;20036;-85
2023/01/17 06:53:42;;;;;;;5.28;1.13;;;1.70;99.90;;;;;;5092563;28;20040;-86
2023/01/17 06:56:08;;;;;;;6.55;0.90;;;1.70;99.90;;;;;;5074864;28;20043;-85
2023/01/17 06:58:34;;;;;;;5.18;0.98;;;3.10;99.90;;;;;;5108903;28;20036;-85
2023/01/17 07:01:11;;;;;;;11.75;0.90;;;2.80;99.90;;;;;;5111906;27;20094;-86
2023/01/17 07:03:37;;;;;;;6.20;1.13;;;1.70;99.90;;;;;;5093983;27;20600;-85
2023/01/17 07:06:03;;;;;;;6.63;0.55;;;1.70;99.90;;;;;;5095691;27;20039;-86
2023/01/17 07:08:30;;;;;;;4.95;1.20;;;1.80;99.90;;;;;;5094820;27;20092;-85
2023/01/17 07:11:02;;;;;;;9.88;2.13;;;1.80;99.90;;;;;;5078529;27;20139;-85
2023/01/17 07:13:28;;;;;;;8.27;0.85;;;2.60;99.90;;;;;;5094940;27;20035;-88
2023/01/17 07:15:54;;;;;;;3.83;0.93;;;1.80;99.90;;;;;;5094867;27;20035;-84
2023/01/17 07:18:22;;;;;;;5.75;0.82;;;1.80;99.90;;;;;;5078034;27;20150;-85
2023/01/17 07:20:52;;;;;;;5.35;0.52;;;1.80;99.90;;;;;;5077923;27;20082;-85
2023/01/17 07:23:22;;;;;;;5.43;0.50;;;1.80;99.90;;;;;;5113031;27;20324;-86
2023/01/17 07:25:53;;;;;;;5.75;0.68;;;1.80;99.90;;;;;;5111633;27;20039;-84
2023/01/17 07:28:19;;;;;;;7.22;0.63;;;2.60;99.90;;;;;;5114337;27;20036;-84
2023/01/17 07:30:45;;;;;;;1.40;0.40;;;1.80;99.90;;;;;;5102784;27;20054;-85
2023/01/17 07:33:11;;;;;;;6.47;0.70;;;1.80;99.90;;;;;;5082125;27;20623;-85
2023/01/17 07:35:37;;;;;;;7.93;1.30;;;1.10;99.90;;;;;;5111912;27;20042;-84
2023/01/17 07:38:04;;;;;;;1.73;0.68;;;1.80;99.90;;;;;;5129113;27;20374;-85
2023/01/17 07:40:30;;;;;;;7.88;0.50;;;3.00;99.90;;;;;;5095564;27;20042;-85
2023/01/17 07:43:00;;;;;;;2.67;0.52;;;2.30;99.90;;;;;;5110336;27;20081;-85
2023/01/17 07:45:26;;;;;;;5.68;0.70;;;3.00;99.90;;;;;;5094457;27;20047;-85
2023/01/17 07:47:55;;;;;;;1.75;0.43;;;3.00;99.90;;;;;;5094932;27;20039;-85
2023/01/17 07:50:21;;;;;;;1.55;0.35;;;2.00;99.90;;;;;;5094215;27;20039;-84
2023/01/17 07:52:50;;;;;;;3.33;0.40;;;1.80;99.90;;;;;;5094898;27;20096;-84
2023/01/17 07:55:15;;;;;;;2.30;0.73;;;1.80;99.90;;;;;;5076231;27;20549;-84
2023/01/17 07:57:41;;;;;;;5.97;0.63;;;3.20;99.90;;;;;;5094642;27;20139;-84
2023/01/17 08:00:09;;;;;;;5.05;0.45;;;1.90;99.90;;;;;;5110190;27;20039;-84
2023/01/17 08:02:35;;;;;;;9.35;0.50;;;1.80;99.90;;;;;;5094153;27;20480;-85
2023/01/17 08:05:01;;;;;;;5.30;0.63;;;1.80;99.90;;;;;;5077426;27;20463;-84
2023/01/17 08:07:28;;;;;;;2.75;0.30;;;2.90;99.90;;;;;;5093354;27;20100;-85
2023/01/17 08:09:54;;;;;;;3.70;0.57;;;3.00;99.90;;;;;;5110957;27;20577;-84
2023/01/17 08:12:19;;;;;;;2.70;0.55;;;3.00;99.90;;;;;;5092946;27;20068;-84
2023/01/17 08:14:45;;;;;;;1.92;0.60;;;1.60;99.90;;;;;;5094986;27;20443;-85
2023/01/17 08:17:13;;;;;;;2.80;0.80;;;2.70;99.90;;;;;;5076422;27;20512;-85
2023/01/17 08:19:39;;;;;;;11.25;0.90;;;2.20;99.90;;;;;;5111184;27;20046;-84
2023/01/17 08:22:07;;;;;;;3.60;0.60;;;2.10;99.90;;;;;;5093834;27;20043;-85
2023/01/17 08:24:33;;;;;;;2.38;0.90;;;1.60;99.90;;;;;;5060179;27;20451;-85
2023/01/17 08:26:59;;;;;;;4.80;0.40;;;2.90;99.90;;;;;;5077340;27;20065;-84
2023/01/17 08:29:25;;;;;;;4.05;1.48;;;1.70;99.90;;;;;;5109370;27;20087;-84
2023/01/17 08:31:51;;;;;;;5.97;0.85;;;1.70;99.90;;;;;;5077277;27;20148;-85
2023/01/17 08:34:16;;;;;;;5.88;0.73;;;1.80;99.90;;;;;;5092591;27;20057;-85
2023/01/17 08:36:43;;;;;;;4.00;0.63;;;1.80;99.90;;;;;;5110467;27;20047;-84
2023/01/17 08:39:11;;;;;;;5.25;0.85;;;1.80;99.90;;;;;;5092980;27;20108;-84
2023/01/17 08:41:40;;;;;;;4.78;0.60;;;1.80;99.90;;;;;;5093904;27;20090;-85
2023/01/17 08:44:06;;;;;;;3.10;0.60;;;2.80;99.90;;;;;;5111264;27;20601;-85
2023/01/17 08:46:32;;;;;;;7.20;1.58;;;2.90;99.90;;;;;;5111016;27;20075;-85
2023/01/17 08:48:58;;;;;;;4.72;0.50;;;1.90;99.90;;;;;;5095152;27;20039;-85
2023/01/17 08:51:26;;;;;;;2.05;0.50;;;2.00;99.90;;;;;;5092887;27;20100;-84
2023/01/17 08:53:55;;;;;;;4.13;0.80;;;2.00;99.90;;;;;;5110575;27;20377;-85
2023/01/17 08:56:25;;;;;;;8.20;1.13;;;2.10;99.90;;;;;;5093386;27;20123;-84
2023/01/17 08:58:51;;;;;;;7.43;0.98;;;2.50;99.90;;;;;;5109281;27;20119;-84
2023/01/17 09:01:17;;;;;;;1.48;0.30;;;3.30;99.90;;;;;;5093074;27;20134;-84
2023/01/17 09:03:44;;;;;;;4.97;0.68;;;2.30;99.90;;;;;;5127300;27;20127;-85
2023/01/17 09:06:12;;;;;;;5.57;0.43;;;3.60;99.90;;;;;;5093788;27;20082;-85
2023/01/17 09:08:38;;;;;;;3.08;0.68;;;2.60;99.90;;;;;;5092104;27;20046;-85
2023/01/17 09:11:12;;;;;;;2.90;0.60;;;3.20;99.90;;;;;;5093438;27;20081;-84
2023/01/17 09:13:38;;;;;;;3.67;0.95;;;4.00;99.90;;;;;;5093060;27;20052;-85
2023/01/17 09:16:05;;;;;;;7.35;1.30;;;2.70;99.90;;;;;;5109182;27;20251;-85
2023/01/17 09:18:34;;;;;;;2.20;0.50;;;1.60;99.90;;;;;;5076713;27;20122;-84
2023/01/17 09:21:10;;;;;;;3.90;0.65;;;2.70;99.90;;;;;;5108723;27;20196;-85
2023/01/17 09:23:36;;;;;;;4.65;0.88;;;2.70;99.90;;;;;;5093145;27;20035;-85
2023/01/17 09:26:02;;;;;;;4.00;0.52;;;2.80;99.90;;;;;;5075556;27;20125;-85
2023/01/17 09:28:27;;;;;;;1.13;0.30;;;3.40;99.90;;;;;;5092360;27;20126;-84
2023/01/17 09:30:54;;;;;;;3.45;0.47;;;3.10;99.90;;;;;;5110078;27;20691;-85
2023/01/17 09:33:23;;;;;;;5.60;0.70;;;3.00;99.90;;;;;;5092056;27;20389;-89
2023/01/17 09:35:48;;;;;;;2.80;0.88;;;3.10;99.90;;;;;;5076609;27;20053;-86
2023/01/17 09:38:15;;;;;;;4.13;0.60;;;4.40;99.90;;;;;;5057463;27;20039;-84
2023/01/17 09:40:45;;;;;;;2.63;0.50;;;4.50;99.90;;;;;;5093199;27;20078;-84
2023/01/17 09:43:43;;;;;;;2.20;0.30;;;4.60;99.90;;;;;;5108872;27;20051;-83
2023/01/17 09:46:21;;;;;;;5.15;0.70;;;3.40;99.90;;;;;;5053455;27;20051;-84
2023/01/17 09:48:52;;;;;;;4.85;0.45;;;4.40;99.90;;;;;;5128877;27;20039;-83
2023/01/17 09:51:23;;;;;;;2.65;0.47;;;3.40;99.90;;;;;;5109122;27;20043;-84
2023/01/17 09:53:50;;;;;;;0.63;0.20;;;4.10;99.90;;;;;;5093540;27;20039;-84
2023/01/17 09:56:40;;;;;;;0.65;0.15;;;3.40;99.90;;;;;;5076373;28;20047;-84
2023/01/17 09:59:27;;;;;;;2.17;0.20;;;4.90;99.90;;;;;;5094541;27;20050;-84
2023/01/17 10:02:09;;;;;;;1.15;0.10;;;3.60;99.90;;;;;;5111807;27;20114;-83
2023/01/17 10:05:17;;;;;;;2.23;0.10;;;3.60;99.90;;;;;;5093410;27;20043;-84
2023/01/17 10:08:02;;;;;;;0.17;0.10;;;3.70;99.90;;;;;;5107829;27;20435;-84
2023/01/17 10:10:33;;;;;;;2.42;0.20;;;3.80;99.90;;;;;;5092434;28;20497;-84
2023/01/17 10:13:17;;;;;;;1.70;0.20;;;5.00;99.90;;;;;;5107764;28;20047;-84
2023/01/17 10:16:17;;;;;;;0.73;0.30;;;3.80;99.90;;;;;;5108758;27;20042;-86
2023/01/17 10:19:04;;;;;;;0.55;0.15;;;3.90;99.90;;;;;;5092166;28;20579;-85
2023/01/17 10:21:39;;;;;;;2.05;0.10;;;4.10;99.90;;;;;;5091211;27;20447;-85
2023/01/17 10:24:17;;;;;;;0.00;0.00;;;4.10;99.90;;;;;;5108679;27;20085;-85
2023/01/17 10:26:47;;;;;;;0.77;0.20;;;4.20;99.90;;;;;;5092173;28;20039;-85
2023/01/17 10:29:17;;;;;;;0.52;0.10;;;4.20;99.90;;;;;;5107609;27;20043;-85
2023/01/17 10:31:53;;;;;;;1.95;0.20;;;4.10;99.90;;;;;;5109270;28;20043;-85
2023/01/17 10:34:26;;;;;;;1.48;0.20;;;4.00;99.90;;;;;;5091001;28;20065;-86
2023/01/17 10:37:00;;;;;;;3.10;0.28;;;4.90;99.90;;;;;;5092225;28;20043;-85
2023/01/17 10:39:29;;;;;;;1.45;0.30;;;3.60;99.90;;;;;;5091734;28;20406;-85
2023/01/17 10:42:00;;;;;;;1.77;0.20;;;3.50;99.90;;;;;;5073832;28;20051;-85
2023/01/17 10:44:32;;;;;;;3.42;0.40;;;3.50;99.90;;;;;;5091415;28;20074;-85
2023/01/17 10:47:11;;;;;;;1.60;0.38;;;3.40;99.90;;;;;;5107024;28;20047;-85
2023/01/17 10:49:51;;;;;;;0.17;0.10;;;3.40;99.90;;;;;;5091762;28;20039;-85
2023/01/17 10:52:19;;;;;;;0.75;0.17;;;3.60;99.90;;;;;;5091365;28;20034;-85
2023/01/17 10:55:13;;;;;;;0.88;0.20;;;3.70;99.90;;;;;;5090406;28;20110;-85
2023/01/17 10:57:44;;;;;;;1.65;0.10;;;3.90;99.90;;;;;;5108420;28;20059;-85
2023/01/17 11:00:42;;;;;;;6.47;0.30;;;5.20;99.90;;;;;;5107391;28;20151;-85
2023/01/17 11:03:13;;;;;;;5.25;0.40;;;4.30;99.90;;;;;;5090431;28;20050;-85
2023/01/17 11:05:41;;;;;;;0.73;0.22;;;4.60;99.90;;;;;;5091561;28;20073;-85
2023/01/17 11:08:16;;;;;;;1.35;0.20;;;4.70;99.90;;;;;;5106915;28;20058;-85
2023/01/17 11:10:49;;;;;;;5.65;1.75;;;4.50;99.90;;;;;;5091413;28;20079;-84
2023/01/17 11:13:33;;;;;;;3.67;0.20;;;4.80;99.90;;;;;;5107923;28;20486;-86
2023/01/17 11:16:15;;;;;;;2.05;0.50;;;4.80;99.90;;;;;;5107425;28;20058;-85
2023/01/17 11:18:44;;;;;;;0.55;0.20;;;4.80;99.90;;;;;;5108662;28;20383;-85
2023/01/17 11:21:22;;;;;;;3.63;0.32;;;4.80;99.90;;;;;;5089887;28;20055;-84
2023/01/17 11:23:56;;;;;;;3.90;0.50;;;4.80;99.90;;;;;;5094903;27;20426;-85
2023/01/17 11:26:31;;;;;;;3.47;0.30;;;4.80;99.90;;;;;;5111347;27;20489;-86
2023/01/17 11:29:26;;;;;;;1.15;0.40;;;5.60;99.90;;;;;;5094268;27;20039;-84
2023/01/17 11:31:53;;;;;;;5.25;0.60;;;4.90;99.90;;;;;;5126958;27;20047;-85
2023/01/17 11:34:24;;;;;;;6.25;0.50;;;5.80;99.90;;;;;;5110303;27;20050;-85
2023/01/17 11:37:18;;;;;;;3.45;0.35;;;6.20;99.90;;;;;;5094190;27;20127;-86
2023/01/17 11:39:46;;;;;;;6.32;0.60;;;5.00;99.90;;;;;;5082636;27;20528;-85
2023/01/17 11:42:32;;;;;;;4.20;0.43;;;5.00;99.90;;;;;;5093850;27;20053;-84
2023/01/17 11:45:25;;;;;;;2.20;0.35;;;5.10;99.90;;;;;;5095072;27;20036;-85
2023/01/17 11:48:13;;;;;;;2.03;0.53;;;5.10;99.90;;;;;;5111104;27;20043;-85
2023/01/17 11:50:42;;;;;;;1.98;0.32;;;5.50;99.90;;;;;;5110386;27;20118;-84
2023/01/17 11:53:16;;;;;;;3.40;0.40;;;5.20;99.90;;;;;;5094997;27;20099;-87
2023/01/17 11:55:58;;;;;;;5.03;0.60;;;5.20;99.90;;;;;;5128741;27;20047;-84
2023/01/17 11:58:25;;;;;;;1.38;0.30;;;5.30;99.90;;;;;;5111115;27;20054;-84
2023/01/17 12:01:28;;;;;;;3.85;0.32;;;5.30;99.90;;;;;;5110960;27;20099;-84
2023/01/17 12:04:06;;;;;;;5.32;0.57;;;5.40;99.90;;;;;;5092623;27;20142;-84
2023/01/17 12:07:04;;;;;;;3.58;0.47;;;5.40;99.90;;;;;;5111403;27;20043;-84
2023/01/17 12:09:34;;;;;;;1.88;0.40;;;5.40;99.90;;;;;;5111167;27;20200;-84
2023/01/17 12:15:21;;;;;;;5.90;0.68;;;5.80;99.90;;;;;;5111666;27;20060;-84
2023/01/17 12:18:10;;;;;;;6.43;0.55;;;5.50;99.90;;;;;;5110220;27;20043;-84
2023/01/17 12:20:36;;;;;;;2.53;0.45;;;5.70;99.90;;;;;;5109689;27;20077;-84
2023/01/17 12:23:19;;;;;;;5.38;0.75;;;5.60;99.90;;;;;;5093852;27;20043;-84
2023/01/17 12:25:48;;;;;;;1.67;0.20;;;5.60;99.90;;;;;;5092556;27;20131;-84
2023/01/17 12:28:27;;;;;;;13.15;0.70;;;5.60;99.90;;;;;;5110733;27;20474;-84
2023/01/17 12:31:02;;;;;;;6.95;0.65;;;5.50;99.90;;;;;;5093824;27;20040;-84
2023/01/17 12:33:50;;;;;;;2.42;0.50;;;5.40;99.90;;;;;;5109021;28;20737;-84
2023/01/17 12:36:59;;;;;;;8.60;1.08;;;5.40;99.90;;;;;;5111445;27;20046;-84
2023/01/17 12:39:32;;;;;;;5.10;0.50;;;5.40;99.90;;;;;;5039446;27;20054;-83
2023/01/17 12:42:19;;;;;;;1.60;0.45;;;5.50;99.90;;;;;;5109746;27;20396;-83
2023/01/17 12:45:08;;;;;;;3.53;0.73;;;5.50;99.90;;;;;;5110561;27;20047;-84
2023/01/17 12:47:46;;;;;;;2.15;0.55;;;5.60;99.90;;;;;;5092765;27;20039;-84
2023/01/17 12:50:41;;;;;;;0.93;0.28;;;5.60;99.90;;;;;;5109600;27;20104;-83
2023/01/17 12:53:17;;;;;;;2.95;0.30;;;5.70;99.90;;;;;;5088638;27;20051;-83
2023/01/17 12:55:56;;;;;;;4.47;0.60;;;5.80;99.90;;;;;;5092145;27;20058;-84
2023/01/17 12:58:29;;;;;;;5.82;0.55;;;5.90;99.90;;;;;;5109813;27;20039;-84
2023/01/17 13:01:28;;;;;;;4.20;0.52;;;6.00;99.90;;;;;;5110368;27;20126;-85
2023/01/17 13:04:24;;;;;;;2.17;0.43;;;6.10;99.90;;;;;;5091518;27;20086;-84
2023/01/17 13:07:23;;;;;;;4.95;0.47;;;6.10;99.90;;;;;;5109784;27;20076;-84
2023/01/17 13:10:10;;;;;;;3.15;0.50;;;6.20;99.90;;;;;;5109679;27;20084;-84
2023/01/17 13:12:38;;;;;;;5.30;0.32;;;6.20;99.90;;;;;;5091268;27;20035;-84
2023/01/17 13:15:17;;;;;;;0.93;0.40;;;6.20;99.90;;;;;;5093291;27;20402;-84
2023/01/17 13:18:03;;;;;;;4.25;0.40;;;7.00;99.90;;;;;;5109330;27;20143;-84
2023/01/17 13:21:03;;;;;;;3.92;0.70;;;6.20;99.90;;;;;;5091719;27;20122;-84
2023/01/17 13:23:35;;;;;;;2.03;0.40;;;6.10;99.90;;;;;;5093301;27;20097;-84
2023/01/17 13:26:09;;;;;;;2.35;0.52;;;6.00;99.90;;;;;;5108735;27;20039;-84
2023/01/17 13:28:56;;;;;;;4.43;0.30;;;5.90;99.90;;;;;;5092127;27;20088;-84
2023/01/17 13:31:43;;;;;;;3.08;0.68;;;5.80;99.90;;;;;;5092876;27;20054;-84
2023/01/17 13:34:31;;;;;;;4.57;0.40;;;5.70;99.90;;;;;;5091790;27;20039;-84
2023/01/17 13:37:16;;;;;;;3.50;0.50;;;5.50;99.90;;;;;;5108893;27;20047;-84
2023/01/17 13:40:19;;;;;;;3.97;0.50;;;5.50;99.90;;;;;;5092193;27;20130;-84
2023/01/17 13:42:58;;;;;;;3.35;0.43;;;5.50;99.90;;;;;;5040073;27;20047;-84
2023/01/17 13:45:36;;;;;;;3.13;0.30;;;5.50;99.90;;;;;;5109212;27;20041;-84
2023/01/17 13:48:11;;;;;;;5.25;0.50;;;5.40;99.90;;;;;;5075535;27;20343;-84
2023/01/17 13:50:40;;;;;;;1.50;0.55;;;5.40;99.90;;;;;;5107817;27;20047;-84
2023/01/17 13:53:41;;;;;;;2.78;0.30;;;5.30;99.90;;;;;;5109112;27;20043;-84
2023/01/17 13:56:26;;;;;;;4.60;0.70;;;5.50;99.90;;;;;;5007254;28;20132;-84
2023/01/17 13:59:01;;;;;;;5.50;1.15;;;5.40;99.90;;;;;;5102480;27;20133;-84
2023/01/17 14:01:41;;;;;;;3.13;0.43;;;5.30;99.90;;;;;;5105790;28;20055;-84
2023/01/17 14:04:10;;;;;;;7.82;0.65;;;6.50;99.90;;;;;;5104605;28;20059;-85
2023/01/17 14:06:39;;;;;;;2.00;0.50;;;5.30;99.90;;;;;;5106078;28;20059;-84
2023/01/17 14:09:11;;;;;;;0.88;0.50;;;6.10;99.90;;;;;;5105525;28;20097;-84
2023/01/17 14:11:56;;;;;;;9.93;0.80;;;6.00;99.90;;;;;;5104751;28;20050;-84
2023/01/17 14:14:45;;;;;;;8.45;0.50;;;5.30;99.90;;;;;;5106122;28;20392;-85
2023/01/17 14:17:24;;;;;;;4.82;0.55;;;5.30;99.90;;;;;;5087340;28;20047;-85
2023/01/17 14:19:52;;;;;;;2.88;0.35;;;5.30;99.90;;;;;;5105512;28;20461;-84
2023/01/17 14:22:25;;;;;;;2.17;0.45;;;5.40;99.90;;;;;;5105522;28;20118;-84
2023/01/17 14:25:13;;;;;;;1.77;0.40;;;5.40;99.90;;;;;;5105306;28;20051;-84
2023/01/17 14:27:50;;;;;;;10.63;1.40;;;5.50;99.90;;;;;;5105461;28;20052;-84
2023/01/17 14:30:16;;;;;;;5.78;0.82;;;5.50;99.90;;;;;;5087892;28;20047;-84
2023/01/17 14:33:00;;;;;;;2.67;0.45;;;5.50;99.90;;;;;;5104768;28;20043;-84
2023/01/17 14:35:38;;;;;;;1.77;0.40;;;5.50;99.90;;;;;;5106953;28;20043;-84
2023/01/17 14:38:26;;;;;;;3.30;0.40;;;5.50;99.90;;;;;;5103676;28;20051;-84
2023/01/17 14:40:56;;;;;;;3.67;0.60;;;5.40;99.90;;;;;;5088880;28;20480;-84
2023/01/17 14:43:24;;;;;;;2.95;0.40;;;5.20;99.90;;;;;;5088075;28;20126;-84
2023/01/17 14:46:05;;;;;;;1.52;0.30;;;5.80;99.90;;;;;;5104113;28;20131;-84
2023/01/17 14:48:31;;;;;;;1.95;0.28;;;6.30;99.90;;;;;;5105631;28;20059;-84
2023/01/17 14:50:59;;;;;;;6.68;0.73;;;4.80;99.90;;;;;;5086516;28;20544;-84